sensor_id;sensor_type;location;lat;lon;timestamp;P1;durP1;ratioP1;P2;durP2;ratioP2
10491;SDS011;5293;51.464;-2.566;2024-02-26T00:00:31;5.53;;;2.43;;
10491;SDS011;5293;51.464;-2.566;2024-02-26T00:02:57;2.07;;;1.80;;
10491;SDS011;5293;51.464;-2.566;2024-02-26T00:05:22;4.57;;;2.10;;
10491;SDS011;5293;51.464;-2.566;2024-02-26T00:07:48;3.10;;;1.80;;
10491;SDS011;5293;51.464;-2.566;2024-02-26T00:10:15;1.97;;;1.83;;
10491;SDS011;5293;51.464;-2.566;2024-02-26T00:12:40;3.20;;;2.10;;
10491;SDS011;5293;51.464;-2.566;2024-02-26T00:15:06;3.27;;;1.80;;
10491;SDS011;5293;51.464;-2.566;2024-02-26T00:17:35;3.80;;;1.70;;
10491;SDS011;5293;51.464;-2.566;2024-02-26T00:20:02;2.30;;;1.83;;
10491;SDS011;5293;51.464;-2.566;2024-02-26T00:22:29;3.53;;;2.20;;
10491;SDS011;5293;51.464;-2.566;2024-02-26T00:24:56;3.00;;;1.80;;
10491;SDS011;5293;51.464;-2.566;2024-02-26T00:27:24;1.67;;;1.57;;
10491;SDS011;5293;51.464;-2.566;2024-02-26T00:29:50;2.77;;;2.00;;
10491;SDS011;5293;51.464;-2.566;2024-02-26T00:32:15;3.10;;;1.83;;
10491;SDS011;5293;51.464;-2.566;2024-02-26T00:34:41;6.27;;;2.00;;
10491;SDS011;5293;51.464;-2.566;2024-02-26T00:37:06;3.70;;;1.73;;
10491;SDS011;5293;51.464;-2.566;2024-02-26T00:39:32;4.33;;;2.03;;
10491;SDS011;5293;51.464;-2.566;2024-02-26T00:41:58;2.43;;;1.90;;
10491;SDS011;5293;51.464;-2.566;2024-02-26T00:44:23;3.30;;;1.57;;
10491;SDS011;5293;51.464;-2.566;2024-02-26T00:46:49;2.57;;;1.77;;
10491;SDS011;5293;51.464;-2.566;2024-02-26T00:49:15;3.83;;;2.10;;
10491;SDS011;5293;51.464;-2.566;2024-02-26T00:51:40;1.97;;;1.60;;
10491;SDS011;5293;51.464;-2.566;2024-02-26T00:54:06;2.10;;;1.37;;
10491;SDS011;5293;51.464;-2.566;2024-02-26T00:56:32;3.30;;;1.70;;
10491;SDS011;5293;51.464;-2.566;2024-02-26T00:58:58;4.37;;;1.63;;
10491;SDS011;5293;51.464;-2.566;2024-02-26T01:01:23;1.67;;;1.53;;
10491;SDS011;5293;51.464;-2.566;2024-02-26T01:03:49;7.07;;;1.80;;
10491;SDS011;5293;51.464;-2.566;2024-02-26T01:06:15;2.97;;;1.50;;
10491;SDS011;5293;51.464;-2.566;2024-02-26T01:08:40;1.53;;;1.43;;
10491;SDS011;5293;51.464;-2.566;2024-02-26T01:11:06;6.10;;;1.70;;
10491;SDS011;5293;51.464;-2.566;2024-02-26T01:13:32;4.20;;;1.50;;
10491;SDS011;5293;51.464;-2.566;2024-02-26T01:15:58;1.57;;;1.47;;
10491;SDS011;5293;51.464;-2.566;2024-02-26T01:18:25;2.87;;;1.57;;
10491;SDS011;5293;51.464;-2.566;2024-02-26T01:20:51;3.97;;;1.63;;
10491;SDS011;5293;51.464;-2.566;2024-02-26T01:23:19;3.23;;;1.70;;
10491;SDS011;5293;51.464;-2.566;2024-02-26T01:25:45;3.20;;;1.87;;
10491;SDS011;5293;51.464;-2.566;2024-02-26T01:28:11;3.47;;;1.60;;
10491;SDS011;5293;51.464;-2.566;2024-02-26T01:30:37;4.23;;;1.87;;
10491;SDS011;5293;51.464;-2.566;2024-02-26T01:33:05;2.50;;;1.90;;
10491;SDS011;5293;51.464;-2.566;2024-02-26T01:35:30;2.60;;;1.73;;
10491;SDS011;5293;51.464;-2.566;2024-02-26T01:37:56;2.60;;;2.07;;
10491;SDS011;5293;51.464;-2.566;2024-02-26T01:40:26;3.43;;;1.90;;
10491;SDS011;5293;51.464;-2.566;2024-02-26T01:42:52;3.77;;;2.00;;
10491;SDS011;5293;51.464;-2.566;2024-02-26T01:45:18;5.37;;;2.07;;
10491;SDS011;5293;51.464;-2.566;2024-02-26T01:47:52;1.80;;;1.70;;
10491;SDS011;5293;51.464;-2.566;2024-02-26T01:50:19;2.23;;;1.70;;
10491;SDS011;5293;51.464;-2.566;2024-02-26T01:52:48;2.50;;;1.60;;
10491;SDS011;5293;51.464;-2.566;2024-02-26T01:55:15;3.27;;;1.77;;
10491;SDS011;5293;51.464;-2.566;2024-02-26T01:57:43;4.60;;;1.47;;
10491;SDS011;5293;51.464;-2.566;2024-02-26T02:00:10;4.17;;;1.80;;
10491;SDS011;5293;51.464;-2.566;2024-02-26T02:02:37;1.73;;;1.43;;
10491;SDS011;5293;51.464;-2.566;2024-02-26T02:05:05;2.87;;;1.70;;
10491;SDS011;5293;51.464;-2.566;2024-02-26T02:07:32;5.47;;;1.87;;
10491;SDS011;5293;51.464;-2.566;2024-02-26T02:09:59;2.90;;;1.30;;
10491;SDS011;5293;51.464;-2.566;2024-02-26T02:12:25;4.23;;;1.70;;
10491;SDS011;5293;51.464;-2.566;2024-02-26T02:14:51;4.90;;;1.50;;
10491;SDS011;5293;51.464;-2.566;2024-02-26T02:17:17;2.97;;;2.07;;
10491;SDS011;5293;51.464;-2.566;2024-02-26T02:19:43;2.93;;;2.43;;
10491;SDS011;5293;51.464;-2.566;2024-02-26T02:22:08;6.97;;;2.20;;
10491;SDS011;5293;51.464;-2.566;2024-02-26T02:24:34;5.87;;;1.93;;
10491;SDS011;5293;51.464;-2.566;2024-02-26T02:27:00;1.83;;;1.73;;
10491;SDS011;5293;51.464;-2.566;2024-02-26T02:29:26;4.83;;;1.80;;
10491;SDS011;5293;51.464;-2.566;2024-02-26T02:31:52;2.57;;;1.47;;
10491;SDS011;5293;51.464;-2.566;2024-02-26T02:34:19;3.13;;;1.67;;
10491;SDS011;5293;51.464;-2.566;2024-02-26T02:36:49;2.80;;;1.87;;
10491;SDS011;5293;51.464;-2.566;2024-02-26T02:39:18;8.60;;;2.30;;
10491;SDS011;5293;51.464;-2.566;2024-02-26T02:41:44;2.47;;;2.07;;
10491;SDS011;5293;51.464;-2.566;2024-02-26T02:44:10;3.80;;;1.90;;
10491;SDS011;5293;51.464;-2.566;2024-02-26T02:46:35;5.07;;;1.97;;
10491;SDS011;5293;51.464;-2.566;2024-02-26T02:49:01;1.73;;;1.63;;
10491;SDS011;5293;51.464;-2.566;2024-02-26T02:51:27;3.73;;;1.83;;
10491;SDS011;5293;51.464;-2.566;2024-02-26T02:53:52;3.47;;;1.90;;
10491;SDS011;5293;51.464;-2.566;2024-02-26T02:56:18;3.77;;;1.93;;
10491;SDS011;5293;51.464;-2.566;2024-02-26T02:58:44;3.60;;;1.77;;
10491;SDS011;5293;51.464;-2.566;2024-02-26T03:01:10;3.33;;;1.87;;
10491;SDS011;5293;51.464;-2.566;2024-02-26T03:03:35;4.97;;;1.80;;
10491;SDS011;5293;51.464;-2.566;2024-02-26T03:06:02;3.23;;;1.97;;
10491;SDS011;5293;51.464;-2.566;2024-02-26T03:08:28;4.43;;;1.87;;
10491;SDS011;5293;51.464;-2.566;2024-02-26T03:10:54;3.50;;;1.83;;
10491;SDS011;5293;51.464;-2.566;2024-02-26T03:13:20;2.00;;;1.47;;
10491;SDS011;5293;51.464;-2.566;2024-02-26T03:15:45;4.37;;;2.03;;
10491;SDS011;5293;51.464;-2.566;2024-02-26T03:18:14;5.37;;;2.00;;
10491;SDS011;5293;51.464;-2.566;2024-02-26T03:20:40;3.67;;;2.40;;
10491;SDS011;5293;51.464;-2.566;2024-02-26T03:23:05;3.10;;;1.67;;
10491;SDS011;5293;51.464;-2.566;2024-02-26T03:25:31;3.27;;;1.77;;
10491;SDS011;5293;51.464;-2.566;2024-02-26T03:27:57;4.23;;;1.90;;
10491;SDS011;5293;51.464;-2.566;2024-02-26T03:30:23;2.80;;;1.87;;
10491;SDS011;5293;51.464;-2.566;2024-02-26T03:32:48;4.10;;;1.90;;
10491;SDS011;5293;51.464;-2.566;2024-02-26T03:35:14;2.70;;;1.60;;
10491;SDS011;5293;51.464;-2.566;2024-02-26T03:37:39;5.53;;;1.63;;
10491;SDS011;5293;51.464;-2.566;2024-02-26T03:40:05;1.63;;;1.50;;
10491;SDS011;5293;51.464;-2.566;2024-02-26T03:42:31;2.70;;;1.47;;
10491;SDS011;5293;51.464;-2.566;2024-02-26T03:44:57;1.87;;;1.50;;
10491;SDS011;5293;51.464;-2.566;2024-02-26T03:47:22;3.37;;;1.80;;
10491;SDS011;5293;51.464;-2.566;2024-02-26T03:49:48;1.80;;;1.70;;
10491;SDS011;5293;51.464;-2.566;2024-02-26T03:52:14;3.30;;;1.70;;
10491;SDS011;5293;51.464;-2.566;2024-02-26T03:54:40;2.50;;;1.50;;
10491;SDS011;5293;51.464;-2.566;2024-02-26T03:57:05;4.17;;;1.37;;
10491;SDS011;5293;51.464;-2.566;2024-02-26T03:59:31;3.87;;;1.60;;
10491;SDS011;5293;51.464;-2.566;2024-02-26T04:01:57;2.90;;;1.70;;
10491;SDS011;5293;51.464;-2.566;2024-02-26T04:04:22;1.90;;;1.30;;
10491;SDS011;5293;51.464;-2.566;2024-02-26T04:06:48;2.30;;;1.70;;
10491;SDS011;5293;51.464;-2.566;2024-02-26T04:09:14;3.73;;;1.93;;
10491;SDS011;5293;51.464;-2.566;2024-02-26T04:11:40;5.07;;;2.00;;
10491;SDS011;5293;51.464;-2.566;2024-02-26T04:14:05;5.47;;;2.27;;
10491;SDS011;5293;51.464;-2.566;2024-02-26T04:16:33;2.37;;;1.30;;
10491;SDS011;5293;51.464;-2.566;2024-02-26T04:19:00;4.67;;;2.10;;
10491;SDS011;5293;51.464;-2.566;2024-02-26T04:21:26;3.03;;;1.83;;
10491;SDS011;5293;51.464;-2.566;2024-02-26T04:23:52;6.87;;;2.10;;
10491;SDS011;5293;51.464;-2.566;2024-02-26T04:26:20;2.20;;;2.00;;
10491;SDS011;5293;51.464;-2.566;2024-02-26T04:28:46;5.93;;;2.17;;
10491;SDS011;5293;51.464;-2.566;2024-02-26T04:31:15;3.23;;;1.70;;
10491;SDS011;5293;51.464;-2.566;2024-02-26T04:33:41;6.10;;;2.20;;
10491;SDS011;5293;51.464;-2.566;2024-02-26T04:36:13;5.10;;;2.30;;
10491;SDS011;5293;51.464;-2.566;2024-02-26T04:38:40;2.53;;;2.07;;
10491;SDS011;5293;51.464;-2.566;2024-02-26T04:41:06;4.37;;;2.50;;
10491;SDS011;5293;51.464;-2.566;2024-02-26T04:43:32;5.03;;;2.57;;
10491;SDS011;5293;51.464;-2.566;2024-02-26T04:45:57;3.17;;;1.93;;
10491;SDS011;5293;51.464;-2.566;2024-02-26T04:48:23;7.30;;;2.70;;
10491;SDS011;5293;51.464;-2.566;2024-02-26T04:50:49;4.60;;;2.33;;
10491;SDS011;5293;51.464;-2.566;2024-02-26T04:53:14;4.40;;;2.60;;
10491;SDS011;5293;51.464;-2.566;2024-02-26T04:55:40;3.77;;;2.60;;
10491;SDS011;5293;51.464;-2.566;2024-02-26T04:58:05;7.90;;;2.60;;
10491;SDS011;5293;51.464;-2.566;2024-02-26T05:00:31;5.20;;;2.67;;
10491;SDS011;5293;51.464;-2.566;2024-02-26T05:02:57;7.20;;;2.57;;
10491;SDS011;5293;51.464;-2.566;2024-02-26T05:05:22;3.30;;;2.43;;
10491;SDS011;5293;51.464;-2.566;2024-02-26T05:07:48;5.93;;;3.00;;
10491;SDS011;5293;51.464;-2.566;2024-02-26T05:10:14;3.80;;;2.50;;
10491;SDS011;5293;51.464;-2.566;2024-02-26T05:12:39;5.63;;;2.70;;
10491;SDS011;5293;51.464;-2.566;2024-02-26T05:15:07;8.03;;;3.70;;
10491;SDS011;5293;51.464;-2.566;2024-02-26T05:17:34;8.50;;;2.50;;
10491;SDS011;5293;51.464;-2.566;2024-02-26T05:19:59;4.63;;;2.63;;
10491;SDS011;5293;51.464;-2.566;2024-02-26T05:22:25;2.13;;;1.93;;
10491;SDS011;5293;51.464;-2.566;2024-02-26T05:24:51;3.87;;;2.40;;
10491;SDS011;5293;51.464;-2.566;2024-02-26T05:27:17;5.10;;;2.10;;
10491;SDS011;5293;51.464;-2.566;2024-02-26T05:29:43;6.60;;;2.70;;
10491;SDS011;5293;51.464;-2.566;2024-02-26T05:32:08;1.97;;;1.77;;
10491;SDS011;5293;51.464;-2.566;2024-02-26T05:34:34;2.33;;;1.90;;
10491;SDS011;5293;51.464;-2.566;2024-02-26T05:36:59;2.93;;;2.07;;
10491;SDS011;5293;51.464;-2.566;2024-02-26T05:39:25;3.80;;;1.87;;
10491;SDS011;5293;51.464;-2.566;2024-02-26T05:41:51;4.60;;;1.80;;
10491;SDS011;5293;51.464;-2.566;2024-02-26T05:44:16;4.87;;;2.10;;
10491;SDS011;5293;51.464;-2.566;2024-02-26T05:46:43;3.70;;;2.70;;
10491;SDS011;5293;51.464;-2.566;2024-02-26T05:49:08;4.70;;;1.77;;
10491;SDS011;5293;51.464;-2.566;2024-02-26T05:51:34;7.23;;;2.90;;
10491;SDS011;5293;51.464;-2.566;2024-02-26T05:54:00;4.30;;;2.10;;
10491;SDS011;5293;51.464;-2.566;2024-02-26T05:56:25;4.43;;;1.80;;
10491;SDS011;5293;51.464;-2.566;2024-02-26T05:58:51;4.33;;;1.87;;
10491;SDS011;5293;51.464;-2.566;2024-02-26T06:01:17;8.87;;;2.57;;
10491;SDS011;5293;51.464;-2.566;2024-02-26T06:03:44;2.77;;;1.53;;
10491;SDS011;5293;51.464;-2.566;2024-02-26T06:06:10;4.67;;;1.57;;
10491;SDS011;5293;51.464;-2.566;2024-02-26T06:08:36;10.90;;;2.20;;
10491;SDS011;5293;51.464;-2.566;2024-02-26T06:11:08;1.60;;;1.50;;
10491;SDS011;5293;51.464;-2.566;2024-02-26T06:13:34;7.20;;;2.60;;
10491;SDS011;5293;51.464;-2.566;2024-02-26T06:16:00;4.83;;;1.77;;
10491;SDS011;5293;51.464;-2.566;2024-02-26T06:18:27;3.60;;;1.43;;
10491;SDS011;5293;51.464;-2.566;2024-02-26T06:20:53;5.90;;;1.87;;
10491;SDS011;5293;51.464;-2.566;2024-02-26T06:23:18;2.67;;;1.43;;
10491;SDS011;5293;51.464;-2.566;2024-02-26T06:25:44;1.63;;;1.53;;
10491;SDS011;5293;51.464;-2.566;2024-02-26T06:28:10;4.70;;;2.10;;
10491;SDS011;5293;51.464;-2.566;2024-02-26T06:30:35;2.40;;;1.43;;
10491;SDS011;5293;51.464;-2.566;2024-02-26T06:33:01;3.23;;;1.47;;
10491;SDS011;5293;51.464;-2.566;2024-02-26T06:35:28;2.80;;;1.40;;
10491;SDS011;5293;51.464;-2.566;2024-02-26T06:37:53;4.70;;;2.13;;
10491;SDS011;5293;51.464;-2.566;2024-02-26T06:40:19;5.03;;;1.53;;
10491;SDS011;5293;51.464;-2.566;2024-02-26T06:42:45;2.77;;;1.50;;
10491;SDS011;5293;51.464;-2.566;2024-02-26T06:45:11;4.87;;;0.97;;
10491;SDS011;5293;51.464;-2.566;2024-02-26T06:47:36;6.73;;;1.60;;
10491;SDS011;5293;51.464;-2.566;2024-02-26T06:50:02;4.37;;;1.40;;
10491;SDS011;5293;51.464;-2.566;2024-02-26T06:52:28;2.53;;;1.17;;
10491;SDS011;5293;51.464;-2.566;2024-02-26T06:54:53;2.83;;;1.20;;
10491;SDS011;5293;51.464;-2.566;2024-02-26T06:57:19;2.20;;;1.13;;
10491;SDS011;5293;51.464;-2.566;2024-02-26T06:59:45;2.17;;;0.93;;
10491;SDS011;5293;51.464;-2.566;2024-02-26T07:02:12;3.27;;;1.20;;
10491;SDS011;5293;51.464;-2.566;2024-02-26T07:04:39;3.23;;;0.97;;
10491;SDS011;5293;51.464;-2.566;2024-02-26T07:07:05;1.30;;;1.20;;
10491;SDS011;5293;51.464;-2.566;2024-02-26T07:09:32;1.53;;;1.10;;
10491;SDS011;5293;51.464;-2.566;2024-02-26T07:11:57;13.07;;;1.50;;
10491;SDS011;5293;51.464;-2.566;2024-02-26T07:14:23;3.30;;;1.10;;
10491;SDS011;5293;51.464;-2.566;2024-02-26T07:16:49;1.10;;;1.10;;
10491;SDS011;5293;51.464;-2.566;2024-02-26T07:19:15;2.30;;;1.70;;
10491;SDS011;5293;51.464;-2.566;2024-02-26T07:21:41;3.63;;;1.23;;
10491;SDS011;5293;51.464;-2.566;2024-02-26T07:24:07;1.57;;;1.40;;
10491;SDS011;5293;51.464;-2.566;2024-02-26T07:26:33;3.30;;;1.40;;
10491;SDS011;5293;51.464;-2.566;2024-02-26T07:28:59;3.60;;;1.60;;
10491;SDS011;5293;51.464;-2.566;2024-02-26T07:31:25;2.87;;;1.07;;
10491;SDS011;5293;51.464;-2.566;2024-02-26T07:33:51;5.10;;;1.40;;
10491;SDS011;5293;51.464;-2.566;2024-02-26T07:36:18;4.80;;;1.43;;
10491;SDS011;5293;51.464;-2.566;2024-02-26T07:38:43;2.60;;;1.50;;
10491;SDS011;5293;51.464;-2.566;2024-02-26T07:41:09;2.93;;;1.43;;
10491;SDS011;5293;51.464;-2.566;2024-02-26T07:43:36;1.67;;;1.30;;
10491;SDS011;5293;51.464;-2.566;2024-02-26T07:46:02;2.27;;;1.20;;
10491;SDS011;5293;51.464;-2.566;2024-02-26T07:48:27;3.27;;;1.40;;
10491;SDS011;5293;51.464;-2.566;2024-02-26T07:50:53;6.13;;;1.50;;
10491;SDS011;5293;51.464;-2.566;2024-02-26T07:53:19;2.10;;;1.37;;
10491;SDS011;5293;51.464;-2.566;2024-02-26T07:55:44;2.10;;;1.50;;
10491;SDS011;5293;51.464;-2.566;2024-02-26T07:58:10;2.00;;;1.27;;
10491;SDS011;5293;51.464;-2.566;2024-02-26T08:00:36;2.20;;;1.47;;
10491;SDS011;5293;51.464;-2.566;2024-02-26T08:03:01;2.20;;;1.30;;
10491;SDS011;5293;51.464;-2.566;2024-02-26T08:05:27;3.83;;;1.17;;
10491;SDS011;5293;51.464;-2.566;2024-02-26T08:07:53;6.33;;;1.20;;
10491;SDS011;5293;51.464;-2.566;2024-02-26T08:10:19;2.60;;;1.20;;
10491;SDS011;5293;51.464;-2.566;2024-02-26T08:12:45;4.17;;;2.13;;
10491;SDS011;5293;51.464;-2.566;2024-02-26T08:15:11;2.07;;;1.50;;
10491;SDS011;5293;51.464;-2.566;2024-02-26T08:17:37;3.40;;;1.10;;
10491;SDS011;5293;51.464;-2.566;2024-02-26T08:20:03;1.30;;;1.20;;
10491;SDS011;5293;51.464;-2.566;2024-02-26T08:22:29;3.00;;;1.20;;
10491;SDS011;5293;51.464;-2.566;2024-02-26T08:24:55;1.57;;;1.10;;
10491;SDS011;5293;51.464;-2.566;2024-02-26T08:27:20;2.57;;;1.30;;
10491;SDS011;5293;51.464;-2.566;2024-02-26T08:29:46;1.20;;;1.10;;
10491;SDS011;5293;51.464;-2.566;2024-02-26T08:32:12;2.13;;;1.30;;
10491;SDS011;5293;51.464;-2.566;2024-02-26T08:34:37;1.00;;;1.00;;
10491;SDS011;5293;51.464;-2.566;2024-02-26T08:37:03;2.97;;;1.73;;
10491;SDS011;5293;51.464;-2.566;2024-02-26T08:39:29;3.63;;;1.50;;
10491;SDS011;5293;51.464;-2.566;2024-02-26T08:41:54;3.73;;;1.57;;
10491;SDS011;5293;51.464;-2.566;2024-02-26T08:44:20;3.83;;;1.70;;
10491;SDS011;5293;51.464;-2.566;2024-02-26T08:46:46;2.87;;;1.33;;
10491;SDS011;5293;51.464;-2.566;2024-02-26T08:49:11;1.73;;;1.37;;
10491;SDS011;5293;51.464;-2.566;2024-02-26T08:51:43;5.00;;;1.50;;
10491;SDS011;5293;51.464;-2.566;2024-02-26T08:54:09;3.23;;;1.77;;
10491;SDS011;5293;51.464;-2.566;2024-02-26T08:56:35;3.10;;;1.37;;
10491;SDS011;5293;51.464;-2.566;2024-02-26T08:59:01;2.93;;;1.30;;
10491;SDS011;5293;51.464;-2.566;2024-02-26T09:01:29;2.67;;;1.40;;
10491;SDS011;5293;51.464;-2.566;2024-02-26T09:03:56;5.40;;;1.50;;
10491;SDS011;5293;51.464;-2.566;2024-02-26T09:06:21;6.28;;;1.65;;
10491;SDS011;5293;51.464;-2.566;2024-02-26T09:08:47;3.33;;;1.60;;
10491;SDS011;5293;51.464;-2.566;2024-02-26T09:11:13;2.93;;;1.60;;
10491;SDS011;5293;51.464;-2.566;2024-02-26T09:13:41;4.17;;;1.47;;
10491;SDS011;5293;51.464;-2.566;2024-02-26T09:16:07;3.03;;;1.60;;
10491;SDS011;5293;51.464;-2.566;2024-02-26T09:18:33;3.87;;;1.70;;
10491;SDS011;5293;51.464;-2.566;2024-02-26T09:20:59;4.33;;;1.60;;
10491;SDS011;5293;51.464;-2.566;2024-02-26T09:23:24;3.90;;;1.20;;
10491;SDS011;5293;51.464;-2.566;2024-02-26T09:25:50;3.97;;;1.53;;
10491;SDS011;5293;51.464;-2.566;2024-02-26T09:28:15;5.97;;;1.70;;
10491;SDS011;5293;51.464;-2.566;2024-02-26T09:30:42;3.80;;;1.80;;
10491;SDS011;5293;51.464;-2.566;2024-02-26T09:33:08;2.90;;;1.77;;
10491;SDS011;5293;51.464;-2.566;2024-02-26T09:35:34;3.83;;;1.47;;
10491;SDS011;5293;51.464;-2.566;2024-02-26T09:38:00;3.03;;;1.90;;
10491;SDS011;5293;51.464;-2.566;2024-02-26T09:40:26;3.63;;;1.30;;
10491;SDS011;5293;51.464;-2.566;2024-02-26T09:42:53;1.87;;;1.13;;
10491;SDS011;5293;51.464;-2.566;2024-02-26T09:45:25;1.30;;;1.20;;
10491;SDS011;5293;51.464;-2.566;2024-02-26T09:47:52;4.53;;;1.40;;
10491;SDS011;5293;51.464;-2.566;2024-02-26T09:50:21;2.97;;;1.30;;
10491;SDS011;5293;51.464;-2.566;2024-02-26T09:52:49;7.70;;;1.37;;
10491;SDS011;5293;51.464;-2.566;2024-02-26T09:55:16;2.30;;;1.53;;
10491;SDS011;5293;51.464;-2.566;2024-02-26T09:57:44;4.03;;;1.73;;
10491;SDS011;5293;51.464;-2.566;2024-02-26T10:00:15;3.07;;;1.30;;
10491;SDS011;5293;51.464;-2.566;2024-02-26T10:02:45;2.97;;;1.50;;
10491;SDS011;5293;51.464;-2.566;2024-02-26T10:05:16;2.03;;;1.30;;
10491;SDS011;5293;51.464;-2.566;2024-02-26T10:07:45;3.13;;;1.97;;
10491;SDS011;5293;51.464;-2.566;2024-02-26T10:10:12;3.67;;;1.70;;
10491;SDS011;5293;51.464;-2.566;2024-02-26T10:12:42;4.17;;;1.30;;
10491;SDS011;5293;51.464;-2.566;2024-02-26T10:15:07;1.40;;;1.10;;
10491;SDS011;5293;51.464;-2.566;2024-02-26T10:17:33;2.20;;;1.40;;
10491;SDS011;5293;51.464;-2.566;2024-02-26T10:20:16;3.67;;;1.40;;
10491;SDS011;5293;51.464;-2.566;2024-02-26T10:22:43;3.97;;;1.40;;
10491;SDS011;5293;51.464;-2.566;2024-02-26T10:25:11;3.77;;;1.27;;
10491;SDS011;5293;51.464;-2.566;2024-02-26T10:27:37;4.63;;;1.67;;
10491;SDS011;5293;51.464;-2.566;2024-02-26T10:30:03;2.40;;;1.40;;
10491;SDS011;5293;51.464;-2.566;2024-02-26T10:32:40;1.50;;;1.40;;
10491;SDS011;5293;51.464;-2.566;2024-02-26T10:35:08;3.07;;;1.80;;
10491;SDS011;5293;51.464;-2.566;2024-02-26T10:37:34;1.13;;;1.13;;
10491;SDS011;5293;51.464;-2.566;2024-02-26T10:39:59;5.37;;;1.63;;
10491;SDS011;5293;51.464;-2.566;2024-02-26T10:42:28;4.33;;;1.30;;
10491;SDS011;5293;51.464;-2.566;2024-02-26T10:44:55;1.77;;;1.07;;
10491;SDS011;5293;51.464;-2.566;2024-02-26T10:47:22;2.97;;;1.35;;
10491;SDS011;5293;51.464;-2.566;2024-02-26T10:49:49;3.73;;;1.60;;
10491;SDS011;5293;51.464;-2.566;2024-02-26T10:52:15;4.33;;;1.40;;
10491;SDS011;5293;51.464;-2.566;2024-02-26T10:54:44;1.83;;;1.40;;
10491;SDS011;5293;51.464;-2.566;2024-02-26T10:57:12;3.20;;;1.23;;
10491;SDS011;5293;51.464;-2.566;2024-02-26T10:59:40;4.40;;;1.70;;
10491;SDS011;5293;51.464;-2.566;2024-02-26T11:02:09;2.20;;;1.30;;
10491;SDS011;5293;51.464;-2.566;2024-02-26T11:04:36;2.77;;;1.20;;
10491;SDS011;5293;51.464;-2.566;2024-02-26T11:07:03;3.33;;;1.70;;
10491;SDS011;5293;51.464;-2.566;2024-02-26T11:09:30;4.67;;;1.50;;
10491;SDS011;5293;51.464;-2.566;2024-02-26T11:11:57;1.10;;;1.10;;
10491;SDS011;5293;51.464;-2.566;2024-02-26T11:14:24;1.70;;;1.57;;
10491;SDS011;5293;51.464;-2.566;2024-02-26T11:16:51;3.90;;;1.30;;
10491;SDS011;5293;51.464;-2.566;2024-02-26T11:19:17;5.47;;;1.30;;
10491;SDS011;5293;51.464;-2.566;2024-02-26T11:21:46;4.80;;;1.33;;
10491;SDS011;5293;51.464;-2.566;2024-02-26T11:24:12;1.67;;;1.00;;
10491;SDS011;5293;51.464;-2.566;2024-02-26T11:26:46;12.57;;;1.50;;
10491;SDS011;5293;51.464;-2.566;2024-02-26T11:29:24;2.10;;;1.60;;
10491;SDS011;5293;51.464;-2.566;2024-02-26T11:31:52;2.30;;;1.20;;
10491;SDS011;5293;51.464;-2.566;2024-02-26T11:34:18;2.97;;;1.40;;
10491;SDS011;5293;51.464;-2.566;2024-02-26T11:36:45;1.50;;;1.30;;
10491;SDS011;5293;51.464;-2.566;2024-02-26T11:39:12;1.90;;;1.30;;
10491;SDS011;5293;51.464;-2.566;2024-02-26T11:41:40;5.03;;;1.77;;
10491;SDS011;5293;51.464;-2.566;2024-02-26T11:44:06;2.10;;;1.30;;
10491;SDS011;5293;51.464;-2.566;2024-02-26T11:46:41;2.33;;;1.23;;
10491;SDS011;5293;51.464;-2.566;2024-02-26T11:51:55;3.07;;;1.77;;
10491;SDS011;5293;51.464;-2.566;2024-02-26T11:54:38;1.30;;;1.20;;
10491;SDS011;5293;51.464;-2.566;2024-02-26T12:05:23;2.77;;;1.40;;
10491;SDS011;5293;51.464;-2.566;2024-02-26T12:07:52;1.73;;;1.13;;
10491;SDS011;5293;51.464;-2.566;2024-02-26T12:10:30;3.90;;;1.30;;
10491;SDS011;5293;51.464;-2.566;2024-02-26T12:13:03;2.03;;;1.20;;
10491;SDS011;5293;51.464;-2.566;2024-02-26T12:18:06;1.40;;;0.97;;
10491;SDS011;5293;51.464;-2.566;2024-02-26T12:20:35;1.40;;;1.30;;
10491;SDS011;5293;51.464;-2.566;2024-02-26T12:23:04;1.60;;;1.47;;
10491;SDS011;5293;51.464;-2.566;2024-02-26T12:25:30;2.50;;;1.40;;
10491;SDS011;5293;51.464;-2.566;2024-02-26T12:27:58;1.80;;;1.70;;
10491;SDS011;5293;51.464;-2.566;2024-02-26T12:30:24;4.10;;;1.40;;
10491;SDS011;5293;51.464;-2.566;2024-02-26T12:32:55;3.70;;;1.67;;
10491;SDS011;5293;51.464;-2.566;2024-02-26T12:35:22;3.40;;;1.03;;
10491;SDS011;5293;51.464;-2.566;2024-02-26T12:37:49;2.17;;;1.17;;
10491;SDS011;5293;51.464;-2.566;2024-02-26T12:40:16;2.43;;;1.03;;
10491;SDS011;5293;51.464;-2.566;2024-02-26T12:42:42;3.63;;;1.30;;
10491;SDS011;5293;51.464;-2.566;2024-02-26T12:45:10;1.60;;;1.43;;
10491;SDS011;5293;51.464;-2.566;2024-02-26T12:47:43;2.00;;;1.20;;
10491;SDS011;5293;51.464;-2.566;2024-02-26T12:50:11;0.93;;;0.93;;
10491;SDS011;5293;51.464;-2.566;2024-02-26T12:52:43;4.63;;;1.10;;
10491;SDS011;5293;51.464;-2.566;2024-02-26T12:55:15;4.23;;;1.57;;
10491;SDS011;5293;51.464;-2.566;2024-02-26T12:57:42;2.17;;;0.98;;
10491;SDS011;5293;51.464;-2.566;2024-02-26T13:00:11;2.50;;;1.00;;
10491;SDS011;5293;51.464;-2.566;2024-02-26T13:02:39;3.10;;;1.33;;
10491;SDS011;5293;51.464;-2.566;2024-02-26T13:05:08;1.13;;;1.03;;
10491;SDS011;5293;51.464;-2.566;2024-02-26T13:07:34;1.67;;;0.97;;
10491;SDS011;5293;51.464;-2.566;2024-02-26T13:10:06;2.93;;;1.17;;
10491;SDS011;5293;51.464;-2.566;2024-02-26T13:12:33;1.10;;;1.10;;
10491;SDS011;5293;51.464;-2.566;2024-02-26T13:15:02;4.03;;;1.30;;
10491;SDS011;5293;51.464;-2.566;2024-02-26T13:17:31;3.10;;;1.50;;
10491;SDS011;5293;51.464;-2.566;2024-02-26T13:19:57;2.70;;;1.37;;
10491;SDS011;5293;51.464;-2.566;2024-02-26T13:22:23;3.33;;;1.60;;
10491;SDS011;5293;51.464;-2.566;2024-02-26T13:24:56;2.00;;;1.03;;
10491;SDS011;5293;51.464;-2.566;2024-02-26T13:27:22;2.80;;;1.20;;
10491;SDS011;5293;51.464;-2.566;2024-02-26T13:29:49;3.90;;;1.20;;
10491;SDS011;5293;51.464;-2.566;2024-02-26T13:32:26;2.17;;;0.90;;
10491;SDS011;5293;51.464;-2.566;2024-02-26T13:35:03;3.43;;;1.60;;
10491;SDS011;5293;51.464;-2.566;2024-02-26T13:37:33;3.07;;;1.10;;
10491;SDS011;5293;51.464;-2.566;2024-02-26T13:39:59;2.07;;;0.97;;
10491;SDS011;5293;51.464;-2.566;2024-02-26T13:42:29;2.07;;;1.20;;
10491;SDS011;5293;51.464;-2.566;2024-02-26T13:44:54;5.80;;;1.40;;
10491;SDS011;5293;51.464;-2.566;2024-02-26T13:47:20;4.20;;;1.10;;
10491;SDS011;5293;51.464;-2.566;2024-02-26T13:49:46;3.03;;;1.20;;
10491;SDS011;5293;51.464;-2.566;2024-02-26T13:52:12;1.33;;;1.00;;
10491;SDS011;5293;51.464;-2.566;2024-02-26T13:54:38;4.43;;;1.23;;
10491;SDS011;5293;51.464;-2.566;2024-02-26T13:57:05;2.70;;;1.33;;
10491;SDS011;5293;51.464;-2.566;2024-02-26T13:59:31;3.93;;;1.43;;
10491;SDS011;5293;51.464;-2.566;2024-02-26T14:01:57;1.33;;;1.07;;
10491;SDS011;5293;51.464;-2.566;2024-02-26T14:04:22;3.30;;;1.27;;
10491;SDS011;5293;51.464;-2.566;2024-02-26T14:06:48;2.03;;;1.17;;
10491;SDS011;5293;51.464;-2.566;2024-02-26T14:09:14;0.70;;;0.70;;
10491;SDS011;5293;51.464;-2.566;2024-02-26T14:11:47;1.17;;;0.80;;
10491;SDS011;5293;51.464;-2.566;2024-02-26T14:14:13;0.80;;;0.80;;
10491;SDS011;5293;51.464;-2.566;2024-02-26T14:16:39;2.40;;;0.93;;
10491;SDS011;5293;51.464;-2.566;2024-02-26T14:19:04;1.30;;;1.20;;
10491;SDS011;5293;51.464;-2.566;2024-02-26T14:21:30;2.23;;;0.87;;
10491;SDS011;5293;51.464;-2.566;2024-02-26T14:23:56;2.10;;;0.90;;
10491;SDS011;5293;51.464;-2.566;2024-02-26T14:26:22;3.83;;;1.10;;
10491;SDS011;5293;51.464;-2.566;2024-02-26T14:28:48;3.07;;;1.00;;
10491;SDS011;5293;51.464;-2.566;2024-02-26T14:31:17;1.83;;;0.90;;
10491;SDS011;5293;51.464;-2.566;2024-02-26T14:33:43;1.80;;;0.80;;
10491;SDS011;5293;51.464;-2.566;2024-02-26T14:36:08;3.33;;;1.03;;
10491;SDS011;5293;51.464;-2.566;2024-02-26T14:38:34;2.53;;;1.20;;
10491;SDS011;5293;51.464;-2.566;2024-02-26T14:41:01;1.40;;;1.10;;
10491;SDS011;5293;51.464;-2.566;2024-02-26T14:43:27;1.13;;;0.83;;
10491;SDS011;5293;51.464;-2.566;2024-02-26T14:45:53;1.23;;;1.00;;
10491;SDS011;5293;51.464;-2.566;2024-02-26T14:48:19;0.73;;;0.73;;
10491;SDS011;5293;51.464;-2.566;2024-02-26T14:50:48;1.37;;;0.80;;
10491;SDS011;5293;51.464;-2.566;2024-02-26T14:53:14;1.20;;;0.80;;
10491;SDS011;5293;51.464;-2.566;2024-02-26T14:55:42;1.03;;;0.90;;
10491;SDS011;5293;51.464;-2.566;2024-02-26T14:58:08;2.73;;;1.10;;